Главная страница
METAR-TAF:

METAR-TAF

Аэропорты :

Свальбард

Лонгйир, Норвегия

широта: 78-15N, долгота: 015-28E, высота над уровнем моря: 2 м

Текущие метеонаблюдения

Эта сводка был подготовлена 30 минут назад, в 22:20 UTC
Ветер 2 Узел переменных направлений
Температура 2°C
Влажность 75%
Давление 1013 hPa
Видимость 10 км и более
Нет облачности ниже 1500 м, и нет кучево-дождевой облачности

METAR: ENSB 212220Z VRB02KT CAVOK 02/M02 Q1013 RMK WIND 1400FT 00000KT

Время: 00:50 (22:50 UTC)

Прогноз

Прогноз действительный с 21-го 18 UTC до 22-го 18 UTC
Ветер 5 Узел от северо-северо-восточный
Видимость 10 км и более
небольшая облачность на высоте 2500 фута

TAF: ENSB 2118/2218 02005KT 9999 FEW025

Метеонаблюдения и прогнозы для более 4000 аэропортов (сводки METAR и TAF).

Имеющиеся станции представлены на карте желтыми и красными точками.

Чтобы увидеть название станции, наведите на нее мышь.

Затем щелкните, чтобы увидеть метеонаблюдения и метеопрогнозы.

Управление картой: чтобы увеличить масштаб, щелкните зеленые кнопки с черным крестиком; чтобы уменьшить масштаб, щелкните зеленую кнопку с тире; для просмотра соседних карт щелкайте зеленые стрелки.


METAR-TAF: